createdAt,value
2022-07-31T00:01:12.960Z,96.4
2022-07-31T00:02:29.247Z,96.4
2022-07-31T00:03:45.532Z,96.5
2022-07-31T00:05:01.827Z,96.4
2022-07-31T00:06:18.133Z,96.5
2022-07-31T00:07:34.430Z,96.4
2022-07-31T00:08:50.707Z,96.4
2022-07-31T00:10:07.009Z,96.5
2022-07-31T00:11:23.303Z,96.3
2022-07-31T00:12:38.620Z,96.1
2022-07-31T00:13:53.923Z,96
2022-07-31T00:15:10.220Z,96.1
2022-07-31T00:16:26.519Z,95.9
2022-07-31T00:17:42.816Z,95.8
2022-07-31T00:18:59.100Z,95.6
2022-07-31T00:20:15.387Z,95.4
2022-07-31T00:21:31.692Z,95.5
2022-07-31T00:22:47.990Z,95.2
2022-07-31T00:24:04.268Z,95
2022-07-31T00:25:20.576Z,95.2
2022-07-31T00:26:36.870Z,95.3
2022-07-31T00:27:53.151Z,95.5
2022-07-31T00:29:09.458Z,95.4
2022-07-31T00:30:24.757Z,95.7
2022-07-31T00:31:41.064Z,95.6
2022-07-31T00:32:57.349Z,95.7
2022-07-31T00:34:13.637Z,95.6
2022-07-31T00:35:29.927Z,95.7
2022-07-31T00:36:46.234Z,95.7
2022-07-31T00:38:02.528Z,95.7
2022-07-31T00:39:17.846Z,95.8
2022-07-31T00:40:33.154Z,96
2022-07-31T00:41:48.460Z,96.1
2022-07-31T00:43:03.776Z,96.2
2022-07-31T00:44:20.068Z,96.4
2022-07-31T00:45:36.354Z,96.5
2022-07-31T00:46:52.647Z,96.7
2022-07-31T00:48:08.945Z,96.8
2022-07-31T00:50:41.529Z,96.6
2022-07-31T00:51:57.829Z,96.5
2022-07-31T00:53:14.126Z,96.4
2022-07-31T00:54:30.413Z,96.5
2022-07-31T00:55:46.703Z,96.3
2022-07-31T00:57:03.001Z,96.3
2022-07-31T00:58:19.290Z,96.5
2022-07-31T00:59:34.603Z,96.7
2022-07-31T01:00:50.904Z,96.9
2022-07-31T01:02:07.196Z,96.9
2022-07-31T01:03:23.500Z,96.8
2022-07-31T01:04:39.794Z,96.7
2022-07-31T01:05:56.079Z,96.6
2022-07-31T01:07:12.366Z,96.6
2022-07-31T01:08:28.670Z,96.3
2022-07-31T01:09:43.973Z,96.5
2022-07-31T01:10:59.000Z,96.1
2022-07-31T01:12:14.602Z,96
2022-07-31T01:13:29.925Z,95.9
2022-07-31T01:14:46.211Z,95.7
2022-07-31T01:16:02.496Z,95.8
2022-07-31T01:17:18.807Z,95.7
2022-07-31T01:18:35.091Z,95.9
2022-07-31T01:19:51.387Z,95.5
2022-07-31T01:21:07.672Z,95.6
2022-07-31T01:22:23.973Z,95.6
2022-07-31T01:23:40.262Z,95.6
2022-07-31T01:24:56.566Z,95.4
2022-07-31T01:26:12.863Z,95.8
2022-07-31T01:27:29.147Z,95.8
2022-07-31T01:28:45.440Z,95.5
2022-07-31T01:30:00.745Z,95.6
2022-07-31T01:31:17.052Z,95.7
2022-07-31T01:32:33.335Z,95.9
2022-07-31T01:33:49.627Z,96.1
2022-07-31T01:35:04.950Z,96
2022-07-31T01:36:21.231Z,96.2
2022-07-31T01:37:37.527Z,96
2022-07-31T01:38:52.844Z,96.1
2022-07-31T01:40:08.162Z,95.9
2022-07-31T01:41:23.465Z,95.7
2022-07-31T01:42:38.791Z,95.7
2022-07-31T01:43:54.100Z,95.3
2022-07-31T01:45:09.403Z,95.3
2022-07-31T01:46:25.700Z,95.6
2022-07-31T01:47:41.989Z,95.6
2022-07-31T01:48:58.287Z,95.3
2022-07-31T01:50:14.580Z,95.3
2022-07-31T01:51:30.868Z,95.3
2022-07-31T01:52:47.170Z,95.2
2022-07-31T01:54:03.463Z,95
2022-07-31T01:55:19.766Z,95
2022-07-31T01:56:36.049Z,95
2022-07-31T01:57:52.336Z,94.8
2022-07-31T01:59:08.638Z,94.8
2022-07-31T02:00:24.943Z,94.8
2022-07-31T02:01:40.242Z,94.6
2022-07-31T02:02:56.547Z,94.5
2022-07-31T02:04:12.838Z,94.7
2022-07-31T02:05:29.132Z,94.9
2022-07-31T02:06:45.410Z,94.8
2022-07-31T02:08:01.707Z,94.8
2022-07-31T02:09:18.010Z,94.9
2022-07-31T02:10:33.324Z,94.7
2022-07-31T02:11:48.630Z,95
2022-07-31T02:13:04.920Z,95.2
2022-07-31T02:14:21.227Z,95.1
2022-07-31T02:15:37.510Z,95
2022-07-31T02:16:53.800Z,95.3
2022-07-31T02:18:10.101Z,95.5
2022-07-31T02:19:26.384Z,95.2
2022-07-31T02:20:42.691Z,95.4
2022-07-31T02:21:58.990Z,95.3
2022-07-31T02:23:15.273Z,95.2
2022-07-31T02:24:31.570Z,95.4
2022-07-31T02:25:47.861Z,95.5
2022-07-31T02:27:04.149Z,95.9
2022-07-31T02:28:19.467Z,95.7
2022-07-31T02:30:52.046Z,95.3
2022-07-31T02:32:08.356Z,95.1
2022-07-31T02:33:24.646Z,94.9
2022-07-31T02:34:40.924Z,94.9
2022-07-31T02:35:57.238Z,95.1
2022-07-31T02:37:13.515Z,95.3
2022-07-31T02:38:28.839Z,95.6
2022-07-31T02:39:44.147Z,95.8
2022-07-31T02:41:00.446Z,95.4
2022-07-31T02:42:16.723Z,95
2022-07-31T02:43:33.022Z,94.4
2022-07-31T02:44:49.316Z,94.4
2022-07-31T02:46:05.609Z,94.6
2022-07-31T02:47:21.904Z,95
2022-07-31T02:48:38.194Z,95.2
2022-07-31T02:49:54.491Z,95.3
2022-07-31T02:51:10.783Z,95.3
2022-07-31T02:52:27.088Z,95.2
2022-07-31T02:53:43.374Z,95.1
2022-07-31T02:54:59.680Z,95
2022-07-31T02:56:14.979Z,95.1
2022-07-31T02:57:31.222Z,95.3
2022-07-31T02:58:47.525Z,95.5
2022-07-31T03:00:03.816Z,95.4
2022-07-31T03:01:20.063Z,95.8
2022-07-31T03:02:36.298Z,95.7
2022-07-31T03:03:52.531Z,95.9
2022-07-31T03:05:07.794Z,96.1
2022-07-31T03:06:23.057Z,96.1
2022-07-31T03:07:38.336Z,96.1
2022-07-31T03:08:53.589Z,96.2
2022-07-31T03:10:08.851Z,96.2
2022-07-31T03:11:24.108Z,96.2
2022-07-31T03:12:39.372Z,96.4
2022-07-31T03:13:54.627Z,96.4
2022-07-31T03:15:10.861Z,96.5
2022-07-31T03:16:27.097Z,96.8
2022-07-31T03:17:43.339Z,97
2022-07-31T03:18:59.582Z,97
2022-07-31T03:20:15.823Z,96.8
2022-07-31T03:21:32.047Z,96.9
2022-07-31T03:22:48.287Z,96.9
2022-07-31T03:24:04.542Z,96.8
2022-07-31T03:25:20.774Z,96.6
2022-07-31T03:26:37.016Z,96.2
2022-07-31T03:27:53.263Z,96.2
2022-07-31T03:29:09.486Z,96.1
2022-07-31T03:30:24.755Z,96
2022-07-31T03:31:40.997Z,95.9
2022-07-31T03:32:57.242Z,96.2
2022-07-31T03:34:13.477Z,96
2022-07-31T03:35:29.700Z,95.9
2022-07-31T03:36:45.953Z,95.9
2022-07-31T03:38:02.186Z,96.3
2022-07-31T03:39:17.442Z,96.1
2022-07-31T03:40:32.714Z,96.2
2022-07-31T03:41:48.943Z,95.9
2022-07-31T03:43:05.179Z,95.9
2022-07-31T03:44:21.426Z,96.1
2022-07-31T03:45:37.667Z,96.5
2022-07-31T03:46:53.912Z,96.4
2022-07-31T03:48:10.147Z,96.1
2022-07-31T03:49:26.379Z,96.3
2022-07-31T03:50:42.635Z,96.3
2022-07-31T03:51:58.867Z,95.9
2022-07-31T03:53:15.106Z,95.7
2022-07-31T03:54:31.345Z,95.7
2022-07-31T03:55:47.586Z,96
2022-07-31T03:57:02.835Z,96
2022-07-31T03:58:19.074Z,95.8
2022-07-31T03:59:35.324Z,95.8
2022-07-31T04:00:51.560Z,95.9
2022-07-31T04:02:07.791Z,95.9
2022-07-31T04:03:24.043Z,95.9
2022-07-31T04:04:40.283Z,95.9
2022-07-31T04:05:55.541Z,95.9
2022-07-31T04:07:10.787Z,95.7
2022-07-31T04:08:26.050Z,95.9
2022-07-31T04:09:41.322Z,96
2022-07-31T04:10:57.557Z,95.8
2022-07-31T04:12:12.824Z,95.4
2022-07-31T04:13:28.070Z,95.6
2022-07-31T04:14:44.318Z,95.3
2022-07-31T04:16:00.547Z,95.2
2022-07-31T04:17:16.784Z,94.8
2022-07-31T04:18:33.039Z,95.1
2022-07-31T04:19:49.274Z,95.1
2022-07-31T04:21:05.501Z,95.1
2022-07-31T04:22:21.745Z,95
2022-07-31T04:23:37.984Z,95.3
2022-07-31T04:24:54.237Z,95.1
2022-07-31T04:26:10.475Z,95.1
2022-07-31T04:27:26.711Z,95.2
2022-07-31T04:28:42.948Z,95
2022-07-31T04:29:58.215Z,95
2022-07-31T04:31:14.454Z,95.2
2022-07-31T04:32:30.687Z,95.1
2022-07-31T04:33:46.923Z,95.2
2022-07-31T04:35:03.161Z,95.1
2022-07-31T04:36:19.393Z,95.2
2022-07-31T04:37:35.645Z,95.2
2022-07-31T04:38:50.911Z,95.2
2022-07-31T04:40:06.157Z,95.3
2022-07-31T04:41:22.393Z,95
2022-07-31T04:42:38.634Z,95
2022-07-31T04:43:54.870Z,94.6
2022-07-31T04:45:11.113Z,94.9
2022-07-31T04:46:27.356Z,95
2022-07-31T04:47:43.591Z,94.8
2022-07-31T04:48:59.837Z,94.5
2022-07-31T04:50:16.088Z,94.4
2022-07-31T04:51:32.313Z,94.4
2022-07-31T04:52:48.554Z,94.2
2022-07-31T04:54:04.800Z,94.1
2022-07-31T04:55:21.037Z,93.8
2022-07-31T04:56:36.287Z,93.6
2022-07-31T04:57:52.524Z,93.5
2022-07-31T04:59:08.774Z,93.4
2022-07-31T05:00:25.003Z,93.4
2022-07-31T05:01:41.257Z,93.5
2022-07-31T05:02:57.488Z,93.1
2022-07-31T05:04:13.742Z,93.1
2022-07-31T05:05:28.985Z,93.3
2022-07-31T05:06:44.253Z,93.2
2022-07-31T05:08:00.496Z,93.4
2022-07-31T05:09:16.721Z,93.3
2022-07-31T05:10:32.961Z,93.1
2022-07-31T05:11:49.205Z,93.1
2022-07-31T05:13:05.448Z,93.1
2022-07-31T05:14:21.687Z,93.3
2022-07-31T05:16:54.170Z,92.5
2022-07-31T05:18:10.399Z,92.2
2022-07-31T05:19:26.649Z,92.2
2022-07-31T05:20:42.879Z,91.9
2022-07-31T05:21:59.120Z,92
2022-07-31T05:23:14.373Z,91.8
2022-07-31T05:24:30.621Z,91.5
2022-07-31T05:25:46.865Z,91.2
2022-07-31T05:27:03.095Z,91.8
2022-07-31T05:28:19.336Z,91.6
2022-07-31T05:29:35.587Z,91.7
2022-07-31T05:30:51.819Z,91.5
2022-07-31T05:32:08.070Z,92.5
2022-07-31T05:33:23.315Z,92
2022-07-31T05:34:38.581Z,91.8
2022-07-31T05:35:54.813Z,91.8
2022-07-31T05:37:11.047Z,91.8
2022-07-31T05:38:27.295Z,90.9
2022-07-31T05:39:43.542Z,91
2022-07-31T05:40:59.784Z,90.3
2022-07-31T05:42:16.008Z,91.5
2022-07-31T05:43:32.260Z,90.8
2022-07-31T05:44:48.492Z,90.7
2022-07-31T05:46:04.746Z,90.9
2022-07-31T05:47:20.981Z,90.7
2022-07-31T05:48:37.219Z,90.9
2022-07-31T05:49:52.478Z,90.7
2022-07-31T05:51:08.709Z,90.7
2022-07-31T05:52:24.965Z,90.4
2022-07-31T05:53:41.198Z,90.6
2022-07-31T05:54:57.439Z,90.6
2022-07-31T05:56:13.678Z,90.3
2022-07-31T05:57:29.923Z,90
2022-07-31T05:58:46.156Z,89.9
2022-07-31T06:00:01.406Z,90.4
2022-07-31T06:01:16.672Z,89.8
2022-07-31T06:02:31.940Z,89.6
2022-07-31T06:03:47.196Z,89.3
2022-07-31T06:05:02.456Z,88.6
2022-07-31T06:06:17.715Z,89
2022-07-31T06:07:32.967Z,88.3
2022-07-31T06:08:48.218Z,87.2
2022-07-31T06:10:03.485Z,87.7
2022-07-31T06:11:18.746Z,87.8
2022-07-31T06:12:34.973Z,88.1
2022-07-31T06:13:51.220Z,88
2022-07-31T06:15:07.469Z,87.1
2022-07-31T06:16:23.689Z,87.5
2022-07-31T06:17:39.933Z,88
2022-07-31T06:18:56.188Z,87.7
2022-07-31T06:20:12.423Z,86.7
2022-07-31T06:21:28.668Z,86.5
2022-07-31T06:22:44.906Z,85.6
2022-07-31T06:24:01.141Z,86.4
2022-07-31T06:25:17.386Z,86
2022-07-31T06:26:33.612Z,85.8
2022-07-31T06:27:48.866Z,86.1
2022-07-31T06:29:05.121Z,86.1
2022-07-31T06:30:21.345Z,85.1
2022-07-31T06:31:37.603Z,85.1
2022-07-31T06:32:53.839Z,85.4
2022-07-31T06:34:10.064Z,85.2
2022-07-31T06:35:26.306Z,84.5
2022-07-31T06:36:41.582Z,85.1
2022-07-31T06:37:56.823Z,84.6
2022-07-31T06:39:12.089Z,84.4
2022-07-31T06:40:27.344Z,83.9
2022-07-31T06:41:43.581Z,84.6
2022-07-31T06:42:59.824Z,84.3
2022-07-31T06:44:16.074Z,82.7
2022-07-31T06:45:32.315Z,82.4
2022-07-31T06:46:48.556Z,82.1
2022-07-31T06:48:04.793Z,83.5
2022-07-31T06:49:21.020Z,82.3
2022-07-31T06:50:37.256Z,82
2022-07-31T06:51:53.507Z,81.6
2022-07-31T06:53:09.748Z,80.7
2022-07-31T06:54:25.976Z,80.8
2022-07-31T06:55:42.231Z,81.3
2022-07-31T06:56:57.473Z,82.4
2022-07-31T06:58:13.720Z,81.7
2022-07-31T06:59:29.970Z,81.7
2022-07-31T07:00:46.209Z,81.4
2022-07-31T07:02:02.447Z,81.2
2022-07-31T07:03:18.684Z,81.9
2022-07-31T07:04:34.910Z,82.9
2022-07-31T07:05:50.177Z,81.9
2022-07-31T07:07:05.438Z,82
2022-07-31T07:08:21.671Z,81.7
2022-07-31T07:09:37.912Z,81.5
2022-07-31T07:10:54.160Z,80.8
2022-07-31T07:12:10.400Z,81.7
2022-07-31T07:13:26.628Z,80.7
2022-07-31T07:14:42.876Z,81
2022-07-31T07:15:59.116Z,81.8
2022-07-31T07:17:15.349Z,80.4
2022-07-31T07:18:31.590Z,80.4
2022-07-31T07:19:47.827Z,79.9
2022-07-31T07:21:04.081Z,78.7
2022-07-31T07:22:20.309Z,79.8
2022-07-31T07:23:35.564Z,80.1
2022-07-31T07:24:51.811Z,78.7
2022-07-31T07:26:08.052Z,78.2
2022-07-31T07:27:24.301Z,77.4
2022-07-31T07:28:40.526Z,78.2
2022-07-31T07:29:56.775Z,77.2
2022-07-31T07:31:13.007Z,77.3
2022-07-31T07:32:28.282Z,77.5
2022-07-31T07:33:43.528Z,75.6
2022-07-31T07:34:59.759Z,73.6
2022-07-31T07:36:16.012Z,75
2022-07-31T07:37:32.241Z,75.2
2022-07-31T07:38:48.494Z,75.6
2022-07-31T07:40:04.722Z,75.3
2022-07-31T07:41:20.971Z,73.5
2022-07-31T07:42:37.213Z,74.9
2022-07-31T07:43:53.448Z,74.5
2022-07-31T07:45:09.682Z,74.5
2022-07-31T07:46:25.932Z,75
2022-07-31T07:47:42.171Z,73.8
2022-07-31T07:48:58.402Z,73.5
2022-07-31T07:50:13.671Z,74
2022-07-31T07:51:29.910Z,74.3
2022-07-31T07:52:46.135Z,73.8
2022-07-31T07:54:02.378Z,72.4
2022-07-31T07:55:18.622Z,73.2
2022-07-31T07:56:34.860Z,74.3
2022-07-31T07:57:51.102Z,71.8
2022-07-31T07:59:06.373Z,74
2022-07-31T08:00:21.621Z,72.6
2022-07-31T08:01:37.870Z,70.3
2022-07-31T08:02:54.000Z,71.9
2022-07-31T08:04:10.330Z,73.4
2022-07-31T08:05:26.572Z,71.1
2022-07-31T08:06:42.817Z,71.1
2022-07-31T08:07:59.058Z,71.5
2022-07-31T08:09:15.295Z,69.4
2022-07-31T08:10:31.539Z,69.3
2022-07-31T08:11:47.767Z,70.5
2022-07-31T08:13:04.021Z,70.3
2022-07-31T08:14:20.261Z,70.8
2022-07-31T08:15:36.501Z,71.1
2022-07-31T08:16:51.756Z,70.9
2022-07-31T08:18:07.983Z,73.3
2022-07-31T08:19:24.242Z,71
2022-07-31T08:20:40.476Z,70.3
2022-07-31T08:21:56.715Z,71
2022-07-31T08:23:12.952Z,70.6
2022-07-31T08:24:29.191Z,68.1
2022-07-31T08:25:44.455Z,67.6
2022-07-31T08:26:59.699Z,66.9
2022-07-31T08:28:14.961Z,68.8
2022-07-31T08:29:30.229Z,67.6
2022-07-31T08:30:45.491Z,67.5
2022-07-31T08:32:00.732Z,68
2022-07-31T08:33:16.009Z,65.9
2022-07-31T08:34:31.256Z,67.4
2022-07-31T08:35:47.488Z,66.7
2022-07-31T08:37:03.735Z,68.2
2022-07-31T08:38:19.978Z,67.8
2022-07-31T08:39:36.208Z,67.3
2022-07-31T08:40:52.456Z,69.5
2022-07-31T08:42:08.693Z,68.3
2022-07-31T08:43:24.941Z,67.7
2022-07-31T08:44:41.181Z,67.7
2022-07-31T08:45:57.410Z,66.7
2022-07-31T08:47:13.651Z,67.1
2022-07-31T08:48:29.899Z,67.5
2022-07-31T08:49:46.143Z,67.2
2022-07-31T08:51:01.386Z,68.2
2022-07-31T08:52:17.627Z,67.4
2022-07-31T08:53:33.871Z,65.9
2022-07-31T08:54:50.108Z,66.4
2022-07-31T08:56:06.358Z,67.3
2022-07-31T08:57:22.598Z,69.6
2022-07-31T08:58:38.831Z,68.2
2022-07-31T08:59:54.082Z,69.4
2022-07-31T09:01:09.348Z,69.3
2022-07-31T09:02:24.613Z,68.5
2022-07-31T09:03:39.852Z,67.7
2022-07-31T09:04:55.125Z,66.3
2022-07-31T09:06:10.388Z,66.9
2022-07-31T09:07:26.624Z,68.8
2022-07-31T09:08:42.867Z,67.8
2022-07-31T09:09:59.089Z,67.2
2022-07-31T09:11:15.333Z,69.5
2022-07-31T09:12:31.577Z,67.4
2022-07-31T09:13:47.816Z,65.9
2022-07-31T09:15:04.048Z,66.5
2022-07-31T09:16:20.287Z,68.6
2022-07-31T09:17:36.531Z,68.2
2022-07-31T09:18:52.775Z,67.9
2022-07-31T09:20:09.013Z,67.5
2022-07-31T09:21:25.265Z,67.6
2022-07-31T09:22:40.508Z,66.7
2022-07-31T09:23:56.757Z,63.7
2022-07-31T09:25:12.997Z,64.5
2022-07-31T09:26:29.228Z,64.2
2022-07-31T09:27:45.478Z,66.6
2022-07-31T09:29:01.719Z,65.8
2022-07-31T09:30:17.959Z,63.9
2022-07-31T09:31:33.204Z,62.2
2022-07-31T09:32:48.464Z,61.9
2022-07-31T09:34:03.722Z,63.1
2022-07-31T09:35:18.993Z,65.8
2022-07-31T09:36:35.229Z,62.9
2022-07-31T09:37:51.464Z,62.5
2022-07-31T09:39:07.713Z,63.3
2022-07-31T09:40:23.935Z,61.4
2022-07-31T09:41:40.178Z,64.1
2022-07-31T09:42:56.414Z,61.3
2022-07-31T09:44:12.663Z,61.9
2022-07-31T09:45:28.901Z,62.3
2022-07-31T09:46:45.144Z,61.1
2022-07-31T09:48:01.380Z,62.1
2022-07-31T09:49:17.623Z,60.5
2022-07-31T09:50:33.864Z,60
2022-07-31T09:51:49.123Z,60.8
2022-07-31T09:53:05.365Z,65
2022-07-31T09:54:21.596Z,61.5
2022-07-31T09:55:37.830Z,61
2022-07-31T09:56:54.078Z,60.6
2022-07-31T09:58:10.314Z,60.3
2022-07-31T09:59:26.547Z,59
2022-07-31T10:00:41.809Z,59.7
2022-07-31T10:01:57.078Z,59.2
2022-07-31T10:03:13.312Z,60.1
2022-07-31T10:04:28.577Z,60.4
2022-07-31T10:05:44.809Z,60.9
2022-07-31T10:07:01.048Z,60.3
2022-07-31T10:08:17.294Z,61.2
2022-07-31T10:09:33.535Z,61
2022-07-31T10:10:49.764Z,59.2
2022-07-31T10:12:06.012Z,60.6
2022-07-31T10:13:22.240Z,58.8
2022-07-31T10:14:38.491Z,57.8
2022-07-31T10:15:54.730Z,59
2022-07-31T10:17:10.964Z,59.3
2022-07-31T10:18:27.215Z,58.9
2022-07-31T10:20:59.695Z,58.2
2022-07-31T10:22:14.954Z,58.9
2022-07-31T10:23:31.191Z,59.4
2022-07-31T10:24:47.421Z,58.2
2022-07-31T10:26:03.663Z,59.7
2022-07-31T10:27:19.897Z,59.5
2022-07-31T10:28:35.162Z,59.3
2022-07-31T10:29:50.413Z,58.9
2022-07-31T10:31:05.684Z,59.4
2022-07-31T10:32:20.941Z,59.2
2022-07-31T10:33:37.180Z,58.4
2022-07-31T10:34:53.408Z,57.4
2022-07-31T10:36:09.666Z,58.2
2022-07-31T10:37:25.900Z,56.8
2022-07-31T10:38:42.130Z,57.1
2022-07-31T10:39:58.378Z,56.4
2022-07-31T10:41:14.604Z,57.1
2022-07-31T10:42:30.858Z,57.2
2022-07-31T10:43:47.098Z,56.7
2022-07-31T10:45:03.330Z,57.1
2022-07-31T10:46:19.583Z,57.8
2022-07-31T10:47:35.804Z,57.2
2022-07-31T10:48:51.073Z,58.4
2022-07-31T10:50:07.306Z,58.2
2022-07-31T10:51:23.540Z,57.9
2022-07-31T10:52:39.781Z,57.8
2022-07-31T10:53:56.017Z,57.4
2022-07-31T10:55:12.259Z,57.1
2022-07-31T10:56:28.503Z,56.9
2022-07-31T10:57:43.768Z,56.3
2022-07-31T10:58:59.024Z,56.3
2022-07-31T11:01:31.509Z,57.9
2022-07-31T11:02:46.761Z,56.3
2022-07-31T11:04:02.017Z,55.8
2022-07-31T11:05:18.255Z,56
2022-07-31T11:06:34.507Z,55.5
2022-07-31T11:07:50.741Z,55.3
2022-07-31T11:09:06.977Z,53.9
2022-07-31T11:10:23.225Z,53.9
2022-07-31T11:11:39.454Z,54.4
2022-07-31T11:12:55.702Z,54.4
2022-07-31T11:14:11.941Z,54
2022-07-31T11:15:28.171Z,53.7
2022-07-31T11:16:44.423Z,53.5
2022-07-31T11:18:00.664Z,53.4
2022-07-31T11:19:16.886Z,53.6
2022-07-31T11:20:32.150Z,53.7
2022-07-31T11:21:48.384Z,53.6
2022-07-31T11:23:04.635Z,51.9
2022-07-31T11:24:20.873Z,51.9
2022-07-31T11:25:37.116Z,51.6
2022-07-31T11:26:53.346Z,52.2
2022-07-31T11:28:09.583Z,52.9
2022-07-31T11:29:24.844Z,52.8
2022-07-31T11:30:40.104Z,53.6
2022-07-31T11:31:56.350Z,53.6
2022-07-31T11:33:11.617Z,52.4
2022-07-31T11:34:26.856Z,52.7
2022-07-31T11:35:43.103Z,52
2022-07-31T11:36:59.351Z,54
2022-07-31T11:38:15.573Z,52.4
2022-07-31T11:39:31.832Z,51.6
2022-07-31T11:40:48.052Z,52
2022-07-31T11:42:04.292Z,52.8
2022-07-31T11:43:20.548Z,52.8
2022-07-31T11:44:36.787Z,53.2
2022-07-31T11:45:53.018Z,53
2022-07-31T11:47:09.260Z,52.1
2022-07-31T11:48:25.508Z,51.8
2022-07-31T11:49:41.739Z,51.5
2022-07-31T11:50:56.995Z,52.8
2022-07-31T11:52:13.231Z,52.4
2022-07-31T11:53:29.483Z,51
2022-07-31T11:54:45.711Z,51.5
2022-07-31T11:56:01.948Z,49.6
2022-07-31T11:57:18.188Z,51
2022-07-31T11:58:34.436Z,52.1
2022-07-31T11:59:49.697Z,50.9
2022-07-31T12:01:04.957Z,50.8
2022-07-31T12:02:20.198Z,51.4
2022-07-31T12:03:35.454Z,52.1
2022-07-31T12:04:51.712Z,53.3
2022-07-31T12:06:07.949Z,51
2022-07-31T12:07:24.194Z,52.9
2022-07-31T12:08:40.422Z,53.4
2022-07-31T12:09:56.658Z,53.6
2022-07-31T12:11:12.905Z,51.4
2022-07-31T12:12:29.138Z,52.8
2022-07-31T12:13:45.385Z,52.8
2022-07-31T12:15:01.622Z,51.5
2022-07-31T12:16:17.852Z,52.2
2022-07-31T12:17:34.107Z,51.1
2022-07-31T12:18:50.335Z,52.1
2022-07-31T12:20:05.589Z,52.2
2022-07-31T12:21:21.830Z,51.5
2022-07-31T12:22:38.082Z,53.1
2022-07-31T12:23:54.304Z,51.6
2022-07-31T12:25:10.562Z,51.3
2022-07-31T12:26:26.791Z,51.5
2022-07-31T12:27:43.036Z,51.8
2022-07-31T12:28:58.300Z,50.9
2022-07-31T12:30:13.543Z,51.3
2022-07-31T12:31:29.791Z,50.4
2022-07-31T12:32:46.039Z,51.3
2022-07-31T12:34:02.264Z,50.9
2022-07-31T12:35:18.503Z,50.8
2022-07-31T12:36:34.757Z,52.2
2022-07-31T12:37:50.989Z,51.8
2022-07-31T12:39:07.238Z,50.5
2022-07-31T12:40:23.477Z,51.7
2022-07-31T12:41:39.700Z,51
2022-07-31T12:42:55.957Z,51.2
2022-07-31T12:44:12.182Z,51.8
2022-07-31T12:45:28.422Z,51.5
2022-07-31T12:46:43.674Z,50.2
2022-07-31T12:47:59.932Z,50.8
2022-07-31T12:49:16.161Z,51
2022-07-31T12:50:32.405Z,50.4
2022-07-31T12:51:48.647Z,50
2022-07-31T12:53:04.875Z,49.2
2022-07-31T12:54:21.120Z,50
2022-07-31T12:55:36.389Z,48.6
2022-07-31T12:56:51.645Z,49.1
2022-07-31T12:58:07.867Z,49.1
2022-07-31T12:59:24.120Z,50
2022-07-31T13:00:40.366Z,49.9
2022-07-31T13:01:56.587Z,47.7
2022-07-31T13:03:12.834Z,47.4
2022-07-31T13:04:29.068Z,47.8
2022-07-31T13:05:45.307Z,48.2
2022-07-31T13:07:01.565Z,47.9
2022-07-31T13:08:17.798Z,49.1
2022-07-31T13:09:34.025Z,49.3
2022-07-31T13:10:50.282Z,47.5
2022-07-31T13:12:06.521Z,47.5
2022-07-31T13:13:21.765Z,47
2022-07-31T13:14:38.005Z,47.4
2022-07-31T13:15:54.239Z,48.1
2022-07-31T13:17:09.503Z,46.8
2022-07-31T13:18:24.764Z,45.6
2022-07-31T13:19:40.018Z,47.9
2022-07-31T13:20:55.273Z,46.1
2022-07-31T13:22:11.525Z,46.6
2022-07-31T13:23:27.758Z,46.2
2022-07-31T13:24:43.993Z,45.3
2022-07-31T13:26:00.233Z,46.3
2022-07-31T13:27:16.475Z,47.9
2022-07-31T13:28:32.718Z,45.5
2022-07-31T13:29:48.969Z,46.1
2022-07-31T13:31:05.197Z,46.2
2022-07-31T13:32:21.450Z,46.2
2022-07-31T13:33:37.689Z,45.1
2022-07-31T13:34:53.915Z,46.7
2022-07-31T13:36:10.150Z,46.8
2022-07-31T13:37:25.406Z,46.7
2022-07-31T13:38:41.659Z,45
2022-07-31T13:39:57.900Z,44
2022-07-31T13:41:14.135Z,45.1
2022-07-31T13:42:30.377Z,45.4
2022-07-31T13:43:46.619Z,46.4
2022-07-31T13:45:02.861Z,44.3
2022-07-31T13:46:18.108Z,44
2022-07-31T13:47:33.378Z,45.1
2022-07-31T13:48:48.622Z,45.3
2022-07-31T13:50:03.877Z,47.1
2022-07-31T13:51:20.131Z,45.1
2022-07-31T13:52:36.371Z,45.5
2022-07-31T13:53:52.596Z,44.6
2022-07-31T13:55:08.841Z,45.5
2022-07-31T13:56:25.095Z,44.6
2022-07-31T13:57:41.325Z,44.8
2022-07-31T13:58:57.569Z,46
2022-07-31T14:00:13.813Z,45.8
2022-07-31T14:01:30.038Z,46
2022-07-31T14:02:46.294Z,46.6
2022-07-31T14:04:02.526Z,46.9
2022-07-31T14:05:18.753Z,46
2022-07-31T14:06:34.020Z,46.5
2022-07-31T14:09:06.491Z,45.8
2022-07-31T14:10:22.746Z,46.6
2022-07-31T14:11:38.982Z,45.7
2022-07-31T14:12:55.211Z,44.6
2022-07-31T14:14:11.461Z,44.9
2022-07-31T14:15:27.693Z,45.8
2022-07-31T14:16:42.962Z,44.9
2022-07-31T14:17:58.211Z,45.2
2022-07-31T14:19:13.465Z,45.9
2022-07-31T14:20:29.709Z,46.3
2022-07-31T14:21:45.951Z,45.5
2022-07-31T14:23:02.194Z,45.8
2022-07-31T14:24:18.441Z,46.6
2022-07-31T14:25:34.669Z,47.4
2022-07-31T14:26:50.914Z,47
2022-07-31T14:28:07.154Z,46.1
2022-07-31T14:29:23.403Z,46.6
2022-07-31T14:30:39.636Z,47.1
2022-07-31T14:31:55.871Z,44.3
2022-07-31T14:33:12.116Z,44.4
2022-07-31T14:35:44.598Z,43.9
2022-07-31T14:36:59.843Z,44.5
2022-07-31T14:38:16.084Z,46.1
2022-07-31T14:39:32.336Z,46.4
2022-07-31T14:40:48.567Z,46.4
2022-07-31T14:42:04.810Z,46.6
2022-07-31T14:43:21.051Z,47
2022-07-31T14:44:36.304Z,45.7
2022-07-31T14:45:51.568Z,45.6
2022-07-31T14:47:06.814Z,46.1
2022-07-31T14:48:22.078Z,44.1
2022-07-31T14:49:38.313Z,44.5
2022-07-31T14:50:53.579Z,45.8
2022-07-31T14:52:08.845Z,46.3
2022-07-31T14:53:25.073Z,46.1
2022-07-31T14:54:41.311Z,44.2
2022-07-31T14:55:57.553Z,44
2022-07-31T14:57:13.792Z,45.2
2022-07-31T14:58:30.022Z,45.8
2022-07-31T14:59:46.265Z,45.4
2022-07-31T15:01:02.522Z,45.3
2022-07-31T15:02:18.752Z,45
2022-07-31T15:03:35.000Z,45.2
2022-07-31T15:04:51.233Z,45.5
2022-07-31T15:06:07.473Z,46
2022-07-31T15:07:23.710Z,45.7
2022-07-31T15:08:38.958Z,45.6
2022-07-31T15:09:55.215Z,44.8
2022-07-31T15:11:11.455Z,45
2022-07-31T15:12:27.686Z,45.5
2022-07-31T15:13:43.919Z,46.2
2022-07-31T15:15:00.156Z,46.2
2022-07-31T15:16:16.406Z,46.8
2022-07-31T15:17:31.668Z,47.1
2022-07-31T15:18:46.924Z,47.3
2022-07-31T15:20:02.185Z,48
2022-07-31T15:21:17.435Z,48
2022-07-31T15:22:32.694Z,48.2
2022-07-31T15:23:47.952Z,48.5
2022-07-31T15:25:04.193Z,49.2
2022-07-31T15:26:20.427Z,49.2
2022-07-31T15:27:36.672Z,48.1
2022-07-31T15:28:52.918Z,48.5
2022-07-31T15:30:09.150Z,47.2
2022-07-31T15:31:25.404Z,48
2022-07-31T15:32:41.634Z,47.9
2022-07-31T15:33:57.882Z,48.8
2022-07-31T15:35:14.114Z,47.3
2022-07-31T15:36:30.362Z,46.3
2022-07-31T15:37:46.595Z,45.8
2022-07-31T15:39:02.827Z,45.9
2022-07-31T15:40:18.093Z,45.7
2022-07-31T15:41:34.327Z,48
2022-07-31T15:42:50.558Z,46.8
2022-07-31T15:44:06.817Z,45.1
2022-07-31T15:45:23.051Z,45.4
2022-07-31T15:46:39.295Z,46.8
2022-07-31T15:47:55.526Z,45.8
2022-07-31T15:49:10.784Z,45.9
2022-07-31T15:50:26.050Z,46
2022-07-31T15:51:42.289Z,47.1
2022-07-31T15:52:58.521Z,46.7
2022-07-31T15:54:14.763Z,46.7
2022-07-31T15:55:30.995Z,47
2022-07-31T15:56:47.246Z,47.3
2022-07-31T15:58:03.493Z,47.5
2022-07-31T15:59:19.717Z,46.4
2022-07-31T16:00:35.961Z,46.8
2022-07-31T16:01:52.204Z,46.6
2022-07-31T16:03:08.445Z,47.4
2022-07-31T16:04:24.674Z,47.9
2022-07-31T16:05:40.919Z,48.5
2022-07-31T16:06:56.000Z,48.9
2022-07-31T16:08:12.413Z,47.9
2022-07-31T16:09:28.646Z,48.6
2022-07-31T16:10:44.900Z,47.7
2022-07-31T16:12:01.133Z,46.7
2022-07-31T16:13:17.379Z,46.9
2022-07-31T16:14:33.611Z,45.8
2022-07-31T16:15:48.883Z,45.2
2022-07-31T16:17:04.141Z,45.1
2022-07-31T16:18:20.374Z,44.3
2022-07-31T16:19:36.621Z,44.9
2022-07-31T16:20:52.843Z,44.8
2022-07-31T16:22:09.091Z,45.3
2022-07-31T16:23:25.329Z,46
2022-07-31T16:24:41.569Z,46.4
2022-07-31T16:25:57.820Z,46.3
2022-07-31T16:27:14.049Z,45.2
2022-07-31T16:28:30.289Z,45
2022-07-31T16:29:46.522Z,46
2022-07-31T16:31:02.774Z,46.1
2022-07-31T16:33:35.247Z,45.6
2022-07-31T16:34:50.512Z,45.3
2022-07-31T16:36:06.742Z,45
2022-07-31T16:37:22.982Z,44.8
2022-07-31T16:38:39.222Z,44.4
2022-07-31T16:39:55.467Z,44.4
2022-07-31T16:41:11.705Z,44.3
2022-07-31T16:43:44.175Z,44.1
2022-07-31T16:44:59.449Z,45.1
2022-07-31T16:46:14.692Z,44.6
2022-07-31T16:47:29.958Z,44.9
2022-07-31T16:48:45.216Z,44.8
2022-07-31T16:50:00.478Z,45.2
2022-07-31T16:51:15.722Z,45.1
2022-07-31T16:52:31.003Z,45.9
2022-07-31T16:53:46.257Z,44.9
2022-07-31T16:55:02.483Z,45.6
2022-07-31T16:56:18.730Z,45.4
2022-07-31T16:57:34.961Z,46.3
2022-07-31T16:58:51.197Z,46.9
2022-07-31T17:00:07.454Z,46.8
2022-07-31T17:01:23.693Z,46.9
2022-07-31T17:02:39.924Z,46.9
2022-07-31T17:03:56.162Z,47.3
2022-07-31T17:05:12.408Z,46.8
2022-07-31T17:06:28.646Z,47.5
2022-07-31T17:07:44.884Z,47.8
2022-07-31T17:09:01.124Z,48
2022-07-31T17:10:16.378Z,48
2022-07-31T17:11:32.617Z,48.4